createdAt,value
2022-09-14T00:01:23.688Z,100398.06
2022-09-14T00:03:52.171Z,100399.19
2022-09-14T00:06:18.694Z,100397.44
2022-09-14T00:08:45.286Z,100386.25
2022-09-14T00:11:13.938Z,100396.94
2022-09-14T00:13:42.396Z,100385.69
2022-09-14T00:16:14.500Z,100383.00
2022-09-14T00:18:41.652Z,100387.31
2022-09-14T00:21:10.452Z,100374.91
2022-09-14T00:23:38.321Z,100373.69
2022-09-14T00:26:11.389Z,100368.56
2022-09-14T00:28:47.879Z,100373.28
2022-09-14T00:31:14.428Z,100370.66
2022-09-14T00:33:44.906Z,100370.69
2022-09-14T00:36:14.308Z,100366.59
2022-09-14T00:38:41.860Z,100364.91
2022-09-14T00:41:13.204Z,100363.19
2022-09-14T00:43:58.101Z,100350.19
2022-09-14T00:46:28.558Z,100351.88
2022-09-14T00:49:51.911Z,100351.81
2022-09-14T00:55:39.911Z,100357.03
2022-09-14T00:58:17.742Z,100357.00
2022-09-14T01:01:10.523Z,100349.22
2022-09-14T01:03:44.878Z,100351.63
2022-09-14T01:09:51.707Z,100352.97
2022-09-14T01:12:50.600Z,100342.72
2022-09-14T01:19:04.461Z,100338.97
2022-09-14T01:21:33.706Z,100339.84
2022-09-14T01:24:48.263Z,100349.38
2022-09-14T01:27:24.035Z,100347.50
2022-09-14T01:30:10.710Z,100343.38
2022-09-14T01:32:45.413Z,100339.66
2022-09-14T01:35:18.343Z,100346.59
2022-09-14T01:37:44.786Z,100352.72
2022-09-14T01:40:20.439Z,100337.66
2022-09-14T01:42:52.135Z,100341.38
2022-09-14T01:45:21.154Z,100335.28
2022-09-14T01:47:52.273Z,100329.94
2022-09-14T01:50:38.524Z,100333.03
2022-09-14T01:53:15.893Z,100327.03
2022-09-14T01:55:51.635Z,100326.06
2022-09-14T01:58:25.762Z,100317.44
2022-09-14T02:00:54.073Z,100316.88
2022-09-14T02:03:25.837Z,100316.88
2022-09-14T02:05:58.671Z,100321.34
2022-09-14T02:08:26.938Z,100318.63
2022-09-14T02:10:53.536Z,100314.97
2022-09-14T02:13:20.045Z,100317.69
2022-09-14T02:15:46.768Z,100323.88
2022-09-14T02:18:13.461Z,100325.66
2022-09-14T02:20:45.081Z,100330.84
2022-09-14T02:23:11.780Z,100331.69
2022-09-14T02:25:41.068Z,100326.56
2022-09-14T02:28:08.070Z,100327.53
2022-09-14T02:30:48.571Z,100321.53
2022-09-14T02:33:23.647Z,100318.03
2022-09-14T02:35:54.615Z,100316.28
2022-09-14T02:38:28.195Z,100313.47
2022-09-14T02:40:59.131Z,100312.41
2022-09-14T02:43:41.890Z,100310.69
2022-09-14T02:46:20.279Z,100301.06
2022-09-14T02:48:52.109Z,100306.22
2022-09-14T02:51:34.519Z,100309.22
2022-09-14T02:54:07.296Z,100302.06
2022-09-14T02:56:35.427Z,100292.53
2022-09-14T02:59:01.964Z,100299.53
2022-09-14T03:01:28.689Z,100302.25
2022-09-14T03:03:55.237Z,100293.53
2022-09-14T03:06:22.143Z,100304.88
2022-09-14T03:08:49.173Z,100302.31
2022-09-14T03:11:15.695Z,100309.13
2022-09-14T03:13:42.348Z,100308.31
2022-09-14T03:16:14.316Z,100296.75
2022-09-14T03:18:41.520Z,100297.59
2022-09-14T03:21:11.519Z,100300.84
2022-09-14T03:23:39.070Z,100304.25
2022-09-14T03:26:10.420Z,100301.34
2022-09-14T03:28:37.365Z,100304.22
2022-09-14T03:31:05.364Z,100294.53
2022-09-14T03:33:32.173Z,100298.88
2022-09-14T03:35:58.670Z,100293.59
2022-09-14T03:38:27.967Z,100294.56
2022-09-14T03:40:54.402Z,100294.34
2022-09-14T03:43:21.777Z,100294.47
2022-09-14T03:45:48.226Z,100283.41
2022-09-14T03:48:15.846Z,100283.19
2022-09-14T03:50:42.302Z,100279.19
2022-09-14T03:53:08.890Z,100285.47
2022-09-14T03:55:35.339Z,100285.47
2022-09-14T03:58:01.833Z,100286.25
2022-09-14T04:00:28.287Z,100281.59
2022-09-14T04:02:54.923Z,100277.16
2022-09-14T04:05:22.098Z,100273.06
2022-09-14T04:07:48.633Z,100276.13
2022-09-14T04:10:15.203Z,100273.53
2022-09-14T04:12:41.656Z,100274.78
2022-09-14T04:15:09.048Z,100279.69
2022-09-14T04:17:35.592Z,100270.97
2022-09-14T04:20:02.239Z,100272.03
2022-09-14T04:22:28.707Z,100277.81
2022-09-14T04:24:55.205Z,100265.47
2022-09-14T04:27:21.662Z,100262.25
2022-09-14T04:29:50.256Z,100264.72
2022-09-14T04:32:16.923Z,100262.91
2022-09-14T04:34:43.413Z,100257.94
2022-09-14T04:37:09.953Z,100251.47
2022-09-14T04:39:36.631Z,100259.50
2022-09-14T04:42:03.098Z,100260.41
2022-09-14T04:44:29.568Z,100261.28
2022-09-14T04:46:56.050Z,100257.56
2022-09-14T04:49:22.702Z,100259.19
2022-09-14T04:51:49.277Z,100258.91
2022-09-14T04:54:17.538Z,100254.69
2022-09-14T04:56:44.459Z,100262.53
2022-09-14T04:59:11.228Z,100268.19
2022-09-14T05:01:40.325Z,100258.19
2022-09-14T05:04:08.617Z,100267.72
2022-09-14T05:06:36.542Z,100267.78
2022-09-14T05:09:04.839Z,100261.72
2022-09-14T05:11:33.356Z,100258.13
2022-09-14T05:14:00.682Z,100253.16
2022-09-14T05:16:29.793Z,100254.94
2022-09-14T05:19:02.611Z,100255.16
2022-09-14T05:21:30.491Z,100263.66
2022-09-14T05:23:59.058Z,100259.66
2022-09-14T05:26:26.906Z,100269.28
2022-09-14T05:28:55.395Z,100267.53
2022-09-14T05:31:23.920Z,100258.66
2022-09-14T05:33:50.857Z,100246.63
2022-09-14T05:36:17.334Z,100249.69
2022-09-14T05:38:43.953Z,100254.94
2022-09-14T05:41:12.309Z,100247.06
2022-09-14T05:43:39.226Z,100252.53
2022-09-14T05:46:12.139Z,100247.31
2022-09-14T05:48:39.891Z,100254.91
2022-09-14T05:51:09.733Z,100249.81
2022-09-14T05:53:36.832Z,100245.38
2022-09-14T05:56:04.101Z,100249.53
2022-09-14T05:58:31.181Z,100245.47
2022-09-14T06:00:57.826Z,100242.91
2022-09-14T06:03:24.624Z,100255.16
2022-09-14T06:05:54.701Z,100251.47
2022-09-14T06:08:21.624Z,100256.88
2022-09-14T06:10:48.471Z,100247.28
2022-09-14T06:13:15.015Z,100245.81
2022-09-14T06:15:41.657Z,100247.41
2022-09-14T06:18:08.090Z,100248.34
2022-09-14T06:20:34.541Z,100255.16
2022-09-14T06:23:01.003Z,100251.03
2022-09-14T06:25:28.233Z,100263.28
2022-09-14T06:27:55.181Z,100268.25
2022-09-14T06:30:21.747Z,100266.66
2022-09-14T06:32:48.333Z,100257.75
2022-09-14T06:35:15.150Z,100258.03
2022-09-14T06:37:41.633Z,100257.84
2022-09-14T06:40:08.581Z,100256.31
2022-09-14T06:42:35.118Z,100254.97
2022-09-14T06:45:01.590Z,100248.75
2022-09-14T06:47:32.278Z,100262.06
2022-09-14T06:49:59.089Z,100257.16
2022-09-14T06:52:25.522Z,100261.28
2022-09-14T06:54:51.998Z,100251.53
2022-09-14T06:57:18.434Z,100255.44
2022-09-14T06:59:44.885Z,100251.78
2022-09-14T07:02:13.552Z,100252.84
2022-09-14T07:04:40.069Z,100246.22
2022-09-14T07:07:06.512Z,100255.34
2022-09-14T07:09:32.969Z,100249.66
2022-09-14T07:11:59.473Z,100251.97
2022-09-14T07:14:29.253Z,100268.66
2022-09-14T07:16:58.076Z,100262.50
2022-09-14T07:19:24.496Z,100269.50
2022-09-14T07:21:51.286Z,100266.91
2022-09-14T07:24:17.746Z,100272.94
2022-09-14T07:26:44.230Z,100276.38
2022-09-14T07:29:17.088Z,100272.94
2022-09-14T07:31:46.405Z,100272.06
2022-09-14T07:34:13.421Z,100270.44
2022-09-14T07:36:42.369Z,100256.31
2022-09-14T07:39:11.506Z,100261.25
2022-09-14T07:41:38.074Z,100254.53
2022-09-14T07:44:07.347Z,100255.13
2022-09-14T07:46:39.237Z,100264.09
2022-09-14T07:49:06.857Z,100257.91
2022-09-14T07:51:34.789Z,100255.41
2022-09-14T07:54:01.912Z,100258.81
2022-09-14T07:56:28.858Z,100261.44
2022-09-14T07:59:17.189Z,100255.84
2022-09-14T08:01:46.047Z,100256.84
2022-09-14T08:04:12.800Z,100256.03
2022-09-14T08:06:40.764Z,100249.16
2022-09-14T08:09:08.889Z,100249.28
2022-09-14T08:11:35.628Z,100248.88
2022-09-14T08:14:05.217Z,100247.91
2022-09-14T08:16:33.317Z,100248.38
2022-09-14T08:19:03.124Z,100246.72
2022-09-14T08:21:32.033Z,100248.63
2022-09-14T08:23:59.334Z,100240.03
2022-09-14T08:26:27.211Z,100239.06
2022-09-14T08:28:54.702Z,100230.06
2022-09-14T08:31:24.362Z,100241.56
2022-09-14T08:33:53.294Z,100236.13
2022-09-14T08:36:21.579Z,100231.75
2022-09-14T08:38:48.178Z,100238.22
2022-09-14T08:41:27.074Z,100234.56
2022-09-14T08:43:53.896Z,100230.34
2022-09-14T08:46:37.165Z,100225.25
2022-09-14T08:49:07.317Z,100223.44
2022-09-14T08:51:33.869Z,100237.47
2022-09-14T08:54:00.350Z,100225.56
2022-09-14T08:56:32.033Z,100229.00
2022-09-14T08:59:09.030Z,100232.84
2022-09-14T09:01:49.074Z,100230.28
2022-09-14T09:04:25.193Z,100236.25
2022-09-14T09:07:21.238Z,100229.56
2022-09-14T09:09:52.806Z,100230.94
2022-09-14T09:12:25.300Z,100218.47
2022-09-14T09:14:58.362Z,100216.22
2022-09-14T09:17:31.447Z,100216.41
2022-09-14T09:20:05.824Z,100226.66
2022-09-14T09:22:43.034Z,100230.63
2022-09-14T09:25:24.519Z,100232.38
2022-09-14T09:27:54.873Z,100232.25
2022-09-14T09:30:21.322Z,100221.47
2022-09-14T09:32:48.008Z,100225.59
2022-09-14T09:35:21.265Z,100216.38
2022-09-14T09:37:47.717Z,100217.09
2022-09-14T09:40:20.169Z,100224.38
2022-09-14T09:43:06.628Z,100232.00
2022-09-14T09:45:51.605Z,100221.84
2022-09-14T09:48:19.866Z,100213.53
2022-09-14T09:51:05.361Z,100222.47
2022-09-14T09:53:34.372Z,100220.66
2022-09-14T09:56:01.177Z,100221.69
2022-09-14T09:58:36.252Z,100219.03
2022-09-14T10:01:23.359Z,100219.56
2022-09-14T10:04:08.597Z,100229.88
2022-09-14T10:06:43.878Z,100218.25
2022-09-14T10:09:18.712Z,100219.28
2022-09-14T10:11:46.987Z,100208.78
2022-09-14T10:14:26.753Z,100203.88
2022-09-14T10:16:53.469Z,100212.91
2022-09-14T10:19:26.598Z,100213.75
2022-09-14T10:22:30.003Z,100205.44
2022-09-14T10:25:00.452Z,100210.84
2022-09-14T10:27:39.826Z,100215.88
2022-09-14T10:30:14.475Z,100213.22
2022-09-14T10:32:43.983Z,100211.09
2022-09-14T10:35:15.520Z,100213.31
2022-09-14T10:37:51.175Z,100209.91
2022-09-14T10:40:27.719Z,100207.97
2022-09-14T10:43:13.076Z,100205.00
2022-09-14T10:46:01.580Z,100211.03
2022-09-14T10:48:28.689Z,100215.84
2022-09-14T10:51:07.010Z,100214.34
2022-09-14T10:54:11.888Z,100216.69
2022-09-14T10:56:59.782Z,100228.44
2022-09-14T10:59:43.266Z,100234.22
2022-09-14T11:02:15.877Z,100245.28
2022-09-14T11:05:00.793Z,100234.41
2022-09-14T11:07:42.477Z,100233.41
2022-09-14T11:10:36.915Z,100236.53
2022-09-14T11:13:15.897Z,100231.19
2022-09-14T11:15:56.910Z,100242.34
2022-09-14T11:18:38.230Z,100239.91
2022-09-14T11:21:26.177Z,100243.47
2022-09-14T11:23:56.599Z,100230.84
2022-09-14T11:26:24.800Z,100228.16
2022-09-14T11:28:59.638Z,100232.94
2022-09-14T11:31:33.290Z,100238.00
2022-09-14T11:34:28.251Z,100219.66
2022-09-14T11:37:07.119Z,100212.53
2022-09-14T11:39:38.060Z,100208.25
2022-09-14T11:42:13.225Z,100205.81
2022-09-14T11:44:41.637Z,100205.94
2022-09-14T11:47:13.106Z,100197.69
2022-09-14T11:49:55.360Z,100188.22
2022-09-14T11:52:24.509Z,100191.78
2022-09-14T11:54:51.552Z,100190.81
2022-09-14T11:57:20.487Z,100189.28
2022-09-14T11:59:50.831Z,100193.44
2022-09-14T12:02:44.916Z,100189.03
2022-09-14T12:05:11.330Z,100196.38
2022-09-14T12:07:45.409Z,100192.44
2022-09-14T12:10:15.136Z,100183.69
2022-09-14T12:12:46.697Z,100176.94
2022-09-14T12:15:26.114Z,100180.16
2022-09-14T12:18:08.112Z,100172.50
2022-09-14T12:20:37.716Z,100173.81
2022-09-14T12:23:16.226Z,100178.97
2022-09-14T12:26:10.900Z,100181.28
2022-09-14T12:28:37.658Z,100178.72
2022-09-14T12:31:04.310Z,100188.13
2022-09-14T12:33:36.847Z,100181.69
2022-09-14T12:36:22.481Z,100174.00
2022-09-14T12:38:57.981Z,100186.56
2022-09-14T12:41:24.407Z,100185.63
2022-09-14T12:43:51.187Z,100186.63
2022-09-14T12:46:20.951Z,100176.75
2022-09-14T12:48:51.808Z,100178.41
2022-09-14T12:51:27.921Z,100176.41
2022-09-14T12:54:00.475Z,100177.56
2022-09-14T12:56:56.900Z,100175.03
2022-09-14T12:59:44.152Z,100172.94
2022-09-14T13:02:16.948Z,100175.03
2022-09-14T13:04:45.709Z,100169.97
2022-09-14T13:07:17.848Z,100178.91
2022-09-14T13:09:52.923Z,100172.81
2022-09-14T13:12:45.917Z,100157.69
2022-09-14T13:15:36.866Z,100155.91
2022-09-14T13:18:30.720Z,100161.84
2022-09-14T13:20:59.522Z,100164.41
2022-09-14T13:23:38.898Z,100160.75
2022-09-14T13:26:11.330Z,100161.28
2022-09-14T13:28:37.881Z,100146.66
2022-09-14T13:31:05.128Z,100149.28
2022-09-14T13:33:31.746Z,100147.41
2022-09-14T13:36:00.673Z,100140.16
2022-09-14T13:38:30.266Z,100141.75
2022-09-14T13:41:11.069Z,100141.69
2022-09-14T13:43:40.226Z,100141.72
2022-09-14T13:46:08.235Z,100145.72
2022-09-14T13:48:38.002Z,100146.41
2022-09-14T13:51:05.302Z,100141.91
2022-09-14T13:53:49.537Z,100139.59
2022-09-14T13:56:33.237Z,100134.56
2022-09-14T13:59:09.154Z,100146.66
2022-09-14T14:01:52.208Z,100137.47
2022-09-14T14:04:28.477Z,100132.50
2022-09-14T14:07:07.156Z,100129.56
2022-09-14T14:09:45.426Z,100135.84
2022-09-14T14:12:21.506Z,100127.75
2022-09-14T14:15:20.542Z,100131.31
2022-09-14T14:17:47.374Z,100129.41
2022-09-14T14:20:26.103Z,100127.13
2022-09-14T14:23:00.751Z,100119.28
2022-09-14T14:25:46.098Z,100106.34
2022-09-14T14:28:27.497Z,100108.28
2022-09-14T14:30:55.883Z,100105.63
2022-09-14T14:33:22.734Z,100099.56
2022-09-14T14:35:54.498Z,100104.19
2022-09-14T14:38:23.377Z,100106.91
2022-09-14T14:40:51.045Z,100096.81
2022-09-14T14:43:25.831Z,100102.34
2022-09-14T14:45:58.188Z,100108.66
2022-09-14T14:48:25.012Z,100091.56
2022-09-14T14:50:51.512Z,100096.94
2022-09-14T14:53:17.977Z,100098.91
2022-09-14T14:55:44.730Z,100095.66
2022-09-14T14:58:16.289Z,100102.63
2022-09-14T15:00:43.179Z,100110.06
2022-09-14T15:03:09.832Z,100111.94
2022-09-14T15:05:40.566Z,100116.97
2022-09-14T15:08:07.046Z,100116.88
2022-09-14T15:10:33.538Z,100107.53
2022-09-14T15:13:00.261Z,100112.47
2022-09-14T15:15:26.931Z,100105.47
2022-09-14T15:17:53.824Z,100096.00
2022-09-14T15:20:21.318Z,100090.75
2022-09-14T15:22:48.200Z,100091.69
2022-09-14T15:25:16.049Z,100084.44
2022-09-14T15:27:42.814Z,100085.59
2022-09-14T15:30:10.509Z,100078.91
2022-09-14T15:32:36.963Z,100070.44
2022-09-14T15:35:05.124Z,100074.47
2022-09-14T15:37:31.818Z,100067.25
2022-09-14T15:39:58.373Z,100069.22
2022-09-14T15:42:25.681Z,100072.38
2022-09-14T15:44:52.126Z,100072.84
2022-09-14T15:47:18.659Z,100066.44
2022-09-14T15:49:45.113Z,100060.81
2022-09-14T15:52:12.090Z,100058.75
2022-09-14T15:54:39.130Z,100059.50
2022-09-14T15:57:09.974Z,100051.50
2022-09-14T15:59:36.547Z,100044.81
2022-09-14T16:02:03.307Z,100052.81
2022-09-14T16:04:35.728Z,100048.34
2022-09-14T16:07:02.266Z,100059.00
2022-09-14T16:09:28.769Z,100064.00
2022-09-14T16:11:58.410Z,100057.63
2022-09-14T16:14:28.539Z,100058.81
2022-09-14T16:16:58.769Z,100060.63
2022-09-14T16:19:25.660Z,100063.00
2022-09-14T16:21:53.868Z,100062.16
2022-09-14T16:24:21.326Z,100057.44
2022-09-14T16:26:47.913Z,100057.47
2022-09-14T16:29:16.075Z,100061.41
2022-09-14T16:31:44.205Z,100060.06
2022-09-14T16:34:17.897Z,100052.75
2022-09-14T16:36:44.658Z,100059.38
2022-09-14T16:39:13.558Z,100058.25
2022-09-14T16:41:41.832Z,100057.91
2022-09-14T16:44:18.164Z,100055.97
2022-09-14T16:46:45.066Z,100056.50
2022-09-14T16:49:12.093Z,100058.19
2022-09-14T16:51:38.881Z,100049.53
2022-09-14T16:54:05.387Z,100050.25
2022-09-14T16:56:34.443Z,100053.88
2022-09-14T16:59:01.644Z,100052.59
2022-09-14T17:01:33.804Z,100058.16
2022-09-14T17:04:05.409Z,100053.47
2022-09-14T17:06:32.815Z,100064.31
2022-09-14T17:09:02.054Z,100080.44
2022-09-14T17:11:30.173Z,100074.75
2022-09-14T17:13:57.358Z,100063.56
2022-09-14T17:16:25.201Z,100071.28
2022-09-14T17:18:54.280Z,100055.09
2022-09-14T17:21:23.272Z,100061.78
2022-09-14T17:23:50.030Z,100055.78
2022-09-14T17:26:18.644Z,100068.50
2022-09-14T17:28:47.305Z,100061.31
2022-09-14T17:31:16.189Z,100057.63
2022-09-14T17:33:42.795Z,100051.13
2022-09-14T17:36:09.390Z,100058.28
2022-09-14T17:38:37.984Z,100058.44
2022-09-14T17:41:14.262Z,100053.22
2022-09-14T17:43:41.365Z,100060.06
2022-09-14T17:46:12.187Z,100055.59
2022-09-14T17:48:40.295Z,100056.59
2022-09-14T17:51:08.598Z,100052.25
2022-09-14T17:53:39.169Z,100054.19
2022-09-14T17:56:08.062Z,100059.31
2022-09-14T17:58:35.076Z,100055.94
2022-09-14T18:01:06.180Z,100057.13
2022-09-14T18:03:32.808Z,100052.44
2022-09-14T18:05:59.329Z,100060.72
2022-09-14T18:08:25.891Z,100050.94
2022-09-14T18:10:52.381Z,100057.94
2022-09-14T18:13:18.993Z,100059.31
2022-09-14T18:15:45.450Z,100053.25
2022-09-14T18:18:11.956Z,100052.03
2022-09-14T18:20:38.662Z,100041.56
2022-09-14T18:23:05.222Z,100043.13
2022-09-14T18:25:31.708Z,100054.09
2022-09-14T18:27:58.184Z,100044.59
2022-09-14T18:30:24.598Z,100045.00
2022-09-14T18:32:53.013Z,100047.47
2022-09-14T18:35:19.457Z,100048.63
2022-09-14T18:37:45.911Z,100043.47
2022-09-14T18:40:12.399Z,100044.31
2022-09-14T18:42:38.896Z,100048.19
2022-09-14T18:45:06.758Z,100041.28
2022-09-14T18:47:33.470Z,100039.44
2022-09-14T18:50:01.017Z,100038.19
2022-09-14T18:52:28.105Z,100039.81
2022-09-14T18:54:54.562Z,100045.78
2022-09-14T18:57:22.342Z,100048.16
2022-09-14T18:59:53.845Z,100044.78
2022-09-14T19:02:20.475Z,100044.19
2022-09-14T19:04:47.402Z,100044.97
2022-09-14T19:07:13.845Z,100040.50
2022-09-14T19:09:40.284Z,100045.56
2022-09-14T19:12:07.147Z,100044.59
2022-09-14T19:14:33.675Z,100038.66
2022-09-14T19:17:00.146Z,100039.97
2022-09-14T19:19:52.653Z,100037.63
2022-09-14T19:22:19.107Z,100031.13
2022-09-14T19:24:45.542Z,100043.63
2022-09-14T19:27:12.008Z,100036.25
2022-09-14T19:29:39.471Z,100031.41
2022-09-14T19:32:06.058Z,100032.56
2022-09-14T19:34:32.516Z,100026.28
2022-09-14T19:36:58.964Z,100029.66
2022-09-14T19:39:25.922Z,100026.88
2022-09-14T19:41:54.481Z,100024.53
2022-09-14T19:44:23.163Z,100012.59
2022-09-14T19:46:50.297Z,100016.59
2022-09-14T19:49:19.708Z,100022.06
2022-09-14T19:51:46.670Z,100019.41
2022-09-14T19:54:13.272Z,100010.09
2022-09-14T19:56:40.394Z,100014.09
2022-09-14T19:59:07.628Z,100008.13
2022-09-14T20:01:36.246Z,100010.44
2022-09-14T20:04:04.002Z,100004.38
2022-09-14T20:06:33.842Z,100006.13
2022-09-14T20:09:11.889Z,100005.63
2022-09-14T20:11:39.778Z,100004.03
2022-09-14T20:14:08.676Z,99990.28
2022-09-14T20:16:38.275Z,99996.56
2022-09-14T20:19:08.704Z,100002.50
2022-09-14T20:21:38.009Z,99995.44
2022-09-14T20:24:21.981Z,100003.63
2022-09-14T20:26:50.330Z,99995.34
2022-09-14T20:29:18.283Z,99996.59
2022-09-14T20:31:45.410Z,100002.09
2022-09-14T20:34:12.769Z,100007.16
2022-09-14T20:36:39.548Z,99997.00
2022-09-14T20:39:06.262Z,100000.84
2022-09-14T20:41:34.388Z,99996.88
2022-09-14T20:44:01.482Z,100006.00
2022-09-14T20:46:36.764Z,99997.53
2022-09-14T20:49:05.690Z,99992.84
2022-09-14T20:51:32.353Z,100000.56
2022-09-14T20:53:58.959Z,99997.28
2022-09-14T20:56:27.927Z,99995.81
2022-09-14T20:58:56.686Z,99988.38
2022-09-14T21:01:26.987Z,99987.34
2022-09-14T21:03:54.437Z,99988.09
2022-09-14T21:06:25.575Z,99983.28
2022-09-14T21:08:52.646Z,99985.63
2022-09-14T21:11:21.876Z,99989.19
2022-09-14T21:13:49.302Z,99986.28
2022-09-14T21:16:23.754Z,99982.19
2022-09-14T21:18:59.650Z,99975.47
2022-09-14T21:21:27.211Z,99970.28
2022-09-14T21:23:55.856Z,99975.34
2022-09-14T21:26:22.637Z,99977.50
2022-09-14T21:28:50.015Z,99975.03
2022-09-14T21:31:19.866Z,99983.22
2022-09-14T21:33:49.433Z,99977.50
2022-09-14T21:36:21.747Z,99977.66
2022-09-14T21:38:50.134Z,99974.94
2022-09-14T21:41:17.433Z,99978.97
2022-09-14T21:43:44.922Z,99982.03
2022-09-14T21:46:12.393Z,99978.81
2022-09-14T21:48:38.942Z,99977.56
2022-09-14T21:51:18.624Z,99975.72
2022-09-14T21:53:58.070Z,99974.41
2022-09-14T21:56:26.907Z,99962.84
2022-09-14T21:58:55.554Z,99964.66
2022-09-14T22:01:23.285Z,99967.31
2022-09-14T22:03:53.685Z,99963.66
2022-09-14T22:06:22.267Z,99959.53
2022-09-14T22:08:49.252Z,99969.72
2022-09-14T22:11:24.694Z,99974.47
2022-09-14T22:13:56.422Z,99967.63
2022-09-14T22:16:24.115Z,99971.06
2022-09-14T22:18:52.907Z,99984.94
2022-09-14T22:21:19.878Z,99985.66
2022-09-14T22:23:55.291Z,99981.53
2022-09-14T22:26:23.387Z,99985.00
2022-09-14T22:28:51.787Z,99977.19
2022-09-14T22:31:23.545Z,99968.88
2022-09-14T22:33:50.917Z,99963.19
2022-09-14T22:36:17.810Z,99971.31
2022-09-14T22:38:44.903Z,99976.13
2022-09-14T22:41:14.519Z,99969.00
2022-09-14T22:43:41.454Z,99968.28
2022-09-14T22:46:08.554Z,99967.19
2022-09-14T22:48:35.814Z,99976.38
2022-09-14T22:51:02.731Z,99968.84
2022-09-14T22:53:29.926Z,99964.50
2022-09-14T22:55:56.729Z,99973.13
2022-09-14T22:58:25.897Z,99975.06
2022-09-14T23:00:53.159Z,99969.06
2022-09-14T23:03:20.166Z,99972.44
2022-09-14T23:05:55.594Z,99978.06
2022-09-14T23:08:51.781Z,99976.75
2022-09-14T23:11:18.269Z,99962.13
2022-09-14T23:13:45.539Z,99969.84
2022-09-14T23:16:18.148Z,99961.97
2022-09-14T23:18:45.323Z,99958.78
2022-09-14T23:21:24.856Z,99958.94
2022-09-14T23:23:57.700Z,99965.78
2022-09-14T23:26:25.123Z,99962.38
2022-09-14T23:28:57.245Z,99958.72
2022-09-14T23:31:24.326Z,99964.28
2022-09-14T23:33:55.835Z,99969.47
2022-09-14T23:36:23.198Z,99967.16
2022-09-14T23:38:50.214Z,99965.84
2022-09-14T23:41:17.730Z,99965.63
2022-09-14T23:43:44.514Z,99962.72
2022-09-14T23:46:11.304Z,99963.66
2022-09-14T23:48:38.212Z,99955.25
2022-09-14T23:51:07.596Z,99953.78
2022-09-14T23:53:35.064Z,99954.88
2022-09-14T23:56:02.751Z,99955.97
2022-09-14T23:58:29.231Z,99948.47
